sensor_id;sensor_type;location;lat;lon;timestamp;P1;durP1;ratioP1;P2;durP2;ratioP2
17596;SDS011;8917;50.942;6.946;2022-12-10T00:00:36;28.50;;;20.67;;
17596;SDS011;8917;50.942;6.946;2022-12-10T00:03:04;27.00;;;20.50;;
17596;SDS011;8917;50.942;6.946;2022-12-10T00:05:32;22.80;;;17.53;;
17596;SDS011;8917;50.942;6.946;2022-12-10T00:08:00;24.40;;;18.13;;
17596;SDS011;8917;50.942;6.946;2022-12-10T00:10:27;25.20;;;19.00;;
17596;SDS011;8917;50.942;6.946;2022-12-10T00:12:57;23.67;;;17.77;;
17596;SDS011;8917;50.942;6.946;2022-12-10T00:15:28;24.43;;;18.73;;
17596;SDS011;8917;50.942;6.946;2022-12-10T00:17:56;25.37;;;19.23;;
17596;SDS011;8917;50.942;6.946;2022-12-10T00:20:24;24.40;;;18.83;;
17596;SDS011;8917;50.942;6.946;2022-12-10T00:22:54;25.37;;;18.80;;
17596;SDS011;8917;50.942;6.946;2022-12-10T00:25:22;23.90;;;18.20;;
17596;SDS011;8917;50.942;6.946;2022-12-10T00:27:50;25.20;;;20.17;;
17596;SDS011;8917;50.942;6.946;2022-12-10T00:30:17;24.90;;;19.50;;
17596;SDS011;8917;50.942;6.946;2022-12-10T00:32:46;24.07;;;17.73;;
17596;SDS011;8917;50.942;6.946;2022-12-10T00:35:16;24.73;;;18.77;;
17596;SDS011;8917;50.942;6.946;2022-12-10T00:37:44;24.47;;;18.47;;
17596;SDS011;8917;50.942;6.946;2022-12-10T00:40:12;26.00;;;18.87;;
17596;SDS011;8917;50.942;6.946;2022-12-10T00:42:40;25.67;;;19.33;;
17596;SDS011;8917;50.942;6.946;2022-12-10T00:45:08;23.67;;;18.83;;
17596;SDS011;8917;50.942;6.946;2022-12-10T00:47:36;25.60;;;19.60;;
17596;SDS011;8917;50.942;6.946;2022-12-10T00:50:09;28.23;;;20.57;;
17596;SDS011;8917;50.942;6.946;2022-12-10T00:52:38;27.70;;;19.73;;
17596;SDS011;8917;50.942;6.946;2022-12-10T00:55:06;26.23;;;18.83;;
17596;SDS011;8917;50.942;6.946;2022-12-10T00:57:33;24.17;;;18.00;;
17596;SDS011;8917;50.942;6.946;2022-12-10T01:00:01;26.03;;;18.30;;
17596;SDS011;8917;50.942;6.946;2022-12-10T01:02:29;25.53;;;17.53;;
17596;SDS011;8917;50.942;6.946;2022-12-10T01:04:56;23.90;;;18.20;;
17596;SDS011;8917;50.942;6.946;2022-12-10T01:07:24;23.33;;;17.60;;
17596;SDS011;8917;50.942;6.946;2022-12-10T01:09:53;24.67;;;17.43;;
17596;SDS011;8917;50.942;6.946;2022-12-10T01:12:21;24.83;;;19.60;;
17596;SDS011;8917;50.942;6.946;2022-12-10T01:14:48;25.47;;;18.77;;
17596;SDS011;8917;50.942;6.946;2022-12-10T01:17:16;23.10;;;18.13;;
17596;SDS011;8917;50.942;6.946;2022-12-10T01:19:43;24.40;;;18.60;;
17596;SDS011;8917;50.942;6.946;2022-12-10T01:22:20;22.70;;;18.27;;
17596;SDS011;8917;50.942;6.946;2022-12-10T01:24:47;24.33;;;17.63;;
17596;SDS011;8917;50.942;6.946;2022-12-10T01:27:16;25.67;;;18.43;;
17596;SDS011;8917;50.942;6.946;2022-12-10T01:29:43;23.60;;;18.20;;
17596;SDS011;8917;50.942;6.946;2022-12-10T01:32:11;22.77;;;16.60;;
17596;SDS011;8917;50.942;6.946;2022-12-10T01:34:48;21.93;;;16.67;;
17596;SDS011;8917;50.942;6.946;2022-12-10T01:37:21;20.83;;;16.93;;
17596;SDS011;8917;50.942;6.946;2022-12-10T01:39:48;20.30;;;16.67;;
17596;SDS011;8917;50.942;6.946;2022-12-10T01:42:19;19.57;;;16.03;;
17596;SDS011;8917;50.942;6.946;2022-12-10T01:45:03;18.00;;;14.23;;
17596;SDS011;8917;50.942;6.946;2022-12-10T01:47:30;21.17;;;17.13;;
17596;SDS011;8917;50.942;6.946;2022-12-10T01:50:02;21.27;;;15.80;;
17596;SDS011;8917;50.942;6.946;2022-12-10T01:52:32;23.00;;;16.37;;
17596;SDS011;8917;50.942;6.946;2022-12-10T01:55:00;25.03;;;16.60;;
17596;SDS011;8917;50.942;6.946;2022-12-10T01:57:29;21.70;;;16.23;;
17596;SDS011;8917;50.942;6.946;2022-12-10T02:00:00;18.70;;;14.67;;
17596;SDS011;8917;50.942;6.946;2022-12-10T02:02:33;18.93;;;14.87;;
17596;SDS011;8917;50.942;6.946;2022-12-10T02:05:05;19.50;;;14.90;;
17596;SDS011;8917;50.942;6.946;2022-12-10T02:07:37;20.40;;;15.53;;
17596;SDS011;8917;50.942;6.946;2022-12-10T02:10:07;22.60;;;16.17;;
17596;SDS011;8917;50.942;6.946;2022-12-10T02:12:39;19.97;;;15.10;;
17596;SDS011;8917;50.942;6.946;2022-12-10T02:15:12;21.87;;;16.33;;
17596;SDS011;8917;50.942;6.946;2022-12-10T02:17:41;20.70;;;15.10;;
17596;SDS011;8917;50.942;6.946;2022-12-10T02:20:10;20.53;;;15.40;;
17596;SDS011;8917;50.942;6.946;2022-12-10T02:22:40;20.77;;;15.73;;
17596;SDS011;8917;50.942;6.946;2022-12-10T02:25:09;25.70;;;19.30;;
17596;SDS011;8917;50.942;6.946;2022-12-10T02:27:40;27.83;;;20.17;;
17596;SDS011;8917;50.942;6.946;2022-12-10T02:30:11;29.07;;;22.30;;
17596;SDS011;8917;50.942;6.946;2022-12-10T02:32:39;26.60;;;19.20;;
17596;SDS011;8917;50.942;6.946;2022-12-10T02:35:10;24.20;;;17.47;;
17596;SDS011;8917;50.942;6.946;2022-12-10T02:37:40;23.30;;;17.67;;
17596;SDS011;8917;50.942;6.946;2022-12-10T02:40:11;22.60;;;17.10;;
17596;SDS011;8917;50.942;6.946;2022-12-10T02:42:42;21.40;;;16.60;;
17596;SDS011;8917;50.942;6.946;2022-12-10T02:45:13;21.03;;;16.23;;
17596;SDS011;8917;50.942;6.946;2022-12-10T02:47:40;23.13;;;15.83;;
17596;SDS011;8917;50.942;6.946;2022-12-10T02:50:08;22.93;;;16.63;;
17596;SDS011;8917;50.942;6.946;2022-12-10T02:52:36;21.40;;;16.87;;
17596;SDS011;8917;50.942;6.946;2022-12-10T02:55:04;21.53;;;16.73;;
17596;SDS011;8917;50.942;6.946;2022-12-10T02:57:33;20.53;;;16.07;;
17596;SDS011;8917;50.942;6.946;2022-12-10T03:00:04;22.27;;;17.00;;
17596;SDS011;8917;50.942;6.946;2022-12-10T03:02:36;22.83;;;17.13;;
17596;SDS011;8917;50.942;6.946;2022-12-10T03:05:09;20.37;;;16.20;;
17596;SDS011;8917;50.942;6.946;2022-12-10T03:07:41;23.13;;;17.17;;
17596;SDS011;8917;50.942;6.946;2022-12-10T03:10:10;20.83;;;16.43;;
17596;SDS011;8917;50.942;6.946;2022-12-10T03:12:40;22.03;;;17.83;;
17596;SDS011;8917;50.942;6.946;2022-12-10T03:15:08;22.27;;;18.07;;
17596;SDS011;8917;50.942;6.946;2022-12-10T03:17:38;21.40;;;16.50;;
17596;SDS011;8917;50.942;6.946;2022-12-10T03:20:07;24.10;;;18.33;;
17596;SDS011;8917;50.942;6.946;2022-12-10T03:22:36;21.50;;;17.43;;
17596;SDS011;8917;50.942;6.946;2022-12-10T03:25:05;22.03;;;18.13;;
17596;SDS011;8917;50.942;6.946;2022-12-10T03:27:32;22.30;;;18.00;;
17596;SDS011;8917;50.942;6.946;2022-12-10T03:30:02;22.80;;;18.07;;
17596;SDS011;8917;50.942;6.946;2022-12-10T03:32:30;22.33;;;16.63;;
17596;SDS011;8917;50.942;6.946;2022-12-10T03:34:59;23.40;;;16.80;;
17596;SDS011;8917;50.942;6.946;2022-12-10T03:37:27;22.50;;;17.17;;
17596;SDS011;8917;50.942;6.946;2022-12-10T03:39:55;22.57;;;17.73;;
17596;SDS011;8917;50.942;6.946;2022-12-10T03:42:24;22.60;;;17.60;;
17596;SDS011;8917;50.942;6.946;2022-12-10T03:44:51;22.37;;;17.17;;
17596;SDS011;8917;50.942;6.946;2022-12-10T03:47:19;22.37;;;17.67;;
17596;SDS011;8917;50.942;6.946;2022-12-10T03:49:46;22.13;;;17.00;;
17596;SDS011;8917;50.942;6.946;2022-12-10T03:52:15;25.13;;;18.57;;
17596;SDS011;8917;50.942;6.946;2022-12-10T03:54:42;26.37;;;17.77;;
17596;SDS011;8917;50.942;6.946;2022-12-10T03:57:10;22.67;;;17.90;;
17596;SDS011;8917;50.942;6.946;2022-12-10T03:59:37;22.87;;;17.20;;
17596;SDS011;8917;50.942;6.946;2022-12-10T04:02:04;22.67;;;16.40;;
17596;SDS011;8917;50.942;6.946;2022-12-10T04:04:32;20.73;;;16.30;;
17596;SDS011;8917;50.942;6.946;2022-12-10T04:06:59;22.43;;;17.33;;
17596;SDS011;8917;50.942;6.946;2022-12-10T04:09:28;22.90;;;16.57;;
17596;SDS011;8917;50.942;6.946;2022-12-10T04:11:55;21.00;;;15.20;;
17596;SDS011;8917;50.942;6.946;2022-12-10T04:14:26;21.77;;;16.97;;
17596;SDS011;8917;50.942;6.946;2022-12-10T04:17:11;21.80;;;15.40;;
17596;SDS011;8917;50.942;6.946;2022-12-10T04:19:38;22.17;;;16.20;;
17596;SDS011;8917;50.942;6.946;2022-12-10T04:22:07;20.00;;;15.43;;
17596;SDS011;8917;50.942;6.946;2022-12-10T04:24:54;21.67;;;16.43;;
17596;SDS011;8917;50.942;6.946;2022-12-10T04:27:47;23.27;;;17.20;;
17596;SDS011;8917;50.942;6.946;2022-12-10T04:30:15;21.77;;;16.53;;
17596;SDS011;8917;50.942;6.946;2022-12-10T04:32:42;23.70;;;16.67;;
17596;SDS011;8917;50.942;6.946;2022-12-10T04:35:09;23.30;;;16.60;;
17596;SDS011;8917;50.942;6.946;2022-12-10T04:37:37;22.07;;;16.27;;
17596;SDS011;8917;50.942;6.946;2022-12-10T04:40:06;23.53;;;16.43;;
17596;SDS011;8917;50.942;6.946;2022-12-10T04:42:34;21.27;;;15.93;;
17596;SDS011;8917;50.942;6.946;2022-12-10T04:45:01;24.23;;;16.53;;
17596;SDS011;8917;50.942;6.946;2022-12-10T04:47:29;22.03;;;16.57;;
17596;SDS011;8917;50.942;6.946;2022-12-10T04:49:58;22.53;;;16.63;;
17596;SDS011;8917;50.942;6.946;2022-12-10T04:52:25;23.07;;;16.70;;
17596;SDS011;8917;50.942;6.946;2022-12-10T04:54:53;21.40;;;16.10;;
17596;SDS011;8917;50.942;6.946;2022-12-10T04:57:22;21.97;;;16.50;;
17596;SDS011;8917;50.942;6.946;2022-12-10T04:59:49;23.53;;;17.23;;
17596;SDS011;8917;50.942;6.946;2022-12-10T05:02:16;24.70;;;17.07;;
17596;SDS011;8917;50.942;6.946;2022-12-10T05:04:44;23.87;;;17.27;;
17596;SDS011;8917;50.942;6.946;2022-12-10T05:07:11;26.37;;;18.00;;
17596;SDS011;8917;50.942;6.946;2022-12-10T05:09:39;26.40;;;17.03;;
17596;SDS011;8917;50.942;6.946;2022-12-10T05:12:06;24.40;;;17.57;;
17596;SDS011;8917;50.942;6.946;2022-12-10T05:14:35;24.57;;;17.53;;
17596;SDS011;8917;50.942;6.946;2022-12-10T05:17:02;23.90;;;17.33;;
17596;SDS011;8917;50.942;6.946;2022-12-10T05:19:29;27.27;;;17.93;;
17596;SDS011;8917;50.942;6.946;2022-12-10T05:21:57;23.43;;;17.07;;
17596;SDS011;8917;50.942;6.946;2022-12-10T05:24:42;25.10;;;17.50;;
17596;SDS011;8917;50.942;6.946;2022-12-10T05:27:09;23.47;;;17.53;;
17596;SDS011;8917;50.942;6.946;2022-12-10T05:29:38;22.77;;;17.00;;
17596;SDS011;8917;50.942;6.946;2022-12-10T05:32:05;25.27;;;17.53;;
17596;SDS011;8917;50.942;6.946;2022-12-10T05:34:33;24.93;;;18.00;;
17596;SDS011;8917;50.942;6.946;2022-12-10T05:37:00;26.37;;;17.60;;
17596;SDS011;8917;50.942;6.946;2022-12-10T05:39:27;27.07;;;18.07;;
17596;SDS011;8917;50.942;6.946;2022-12-10T05:41:57;24.30;;;18.30;;
17596;SDS011;8917;50.942;6.946;2022-12-10T05:44:25;23.67;;;17.20;;
17596;SDS011;8917;50.942;6.946;2022-12-10T05:46:54;27.27;;;18.10;;
17596;SDS011;8917;50.942;6.946;2022-12-10T05:49:21;26.43;;;18.47;;
17596;SDS011;8917;50.942;6.946;2022-12-10T05:51:48;25.87;;;18.30;;
17596;SDS011;8917;50.942;6.946;2022-12-10T05:54:16;25.67;;;17.87;;
17596;SDS011;8917;50.942;6.946;2022-12-10T05:56:43;23.57;;;17.47;;
17596;SDS011;8917;50.942;6.946;2022-12-10T05:59:10;27.20;;;18.23;;
17596;SDS011;8917;50.942;6.946;2022-12-10T06:01:38;25.93;;;18.83;;
17596;SDS011;8917;50.942;6.946;2022-12-10T06:04:07;24.83;;;17.60;;
17596;SDS011;8917;50.942;6.946;2022-12-10T06:06:34;23.37;;;16.67;;
17596;SDS011;8917;50.942;6.946;2022-12-10T06:09:03;32.17;;;19.07;;
17596;SDS011;8917;50.942;6.946;2022-12-10T06:11:31;28.90;;;17.87;;
17596;SDS011;8917;50.942;6.946;2022-12-10T06:13:58;24.97;;;17.90;;
17596;SDS011;8917;50.942;6.946;2022-12-10T06:16:29;25.07;;;18.33;;
17596;SDS011;8917;50.942;6.946;2022-12-10T06:18:57;25.33;;;17.80;;
17596;SDS011;8917;50.942;6.946;2022-12-10T06:21:26;24.67;;;17.87;;
17596;SDS011;8917;50.942;6.946;2022-12-10T06:23:56;37.97;;;25.87;;
17596;SDS011;8917;50.942;6.946;2022-12-10T06:26:25;23.43;;;18.20;;
17596;SDS011;8917;50.942;6.946;2022-12-10T06:28:52;25.20;;;17.97;;
17596;SDS011;8917;50.942;6.946;2022-12-10T06:31:20;24.43;;;17.87;;
17596;SDS011;8917;50.942;6.946;2022-12-10T06:33:48;26.67;;;19.67;;
17596;SDS011;8917;50.942;6.946;2022-12-10T06:36:16;25.17;;;18.07;;
17596;SDS011;8917;50.942;6.946;2022-12-10T06:38:45;26.03;;;17.87;;
17596;SDS011;8917;50.942;6.946;2022-12-10T06:41:13;25.13;;;18.87;;
17596;SDS011;8917;50.942;6.946;2022-12-10T06:43:41;26.20;;;18.27;;
17596;SDS011;8917;50.942;6.946;2022-12-10T06:46:09;28.53;;;19.93;;
17596;SDS011;8917;50.942;6.946;2022-12-10T06:48:37;25.47;;;17.93;;
17596;SDS011;8917;50.942;6.946;2022-12-10T06:51:05;25.60;;;18.13;;
17596;SDS011;8917;50.942;6.946;2022-12-10T06:53:33;27.17;;;19.20;;
17596;SDS011;8917;50.942;6.946;2022-12-10T06:56:03;27.33;;;18.40;;
17596;SDS011;8917;50.942;6.946;2022-12-10T06:58:31;28.80;;;19.43;;
17596;SDS011;8917;50.942;6.946;2022-12-10T07:01:03;25.87;;;19.23;;
17596;SDS011;8917;50.942;6.946;2022-12-10T07:03:30;26.93;;;19.00;;
17596;SDS011;8917;50.942;6.946;2022-12-10T07:05:58;27.10;;;18.70;;
17596;SDS011;8917;50.942;6.946;2022-12-10T07:08:26;26.23;;;18.33;;
17596;SDS011;8917;50.942;6.946;2022-12-10T07:10:53;26.77;;;18.63;;
17596;SDS011;8917;50.942;6.946;2022-12-10T07:13:22;28.33;;;19.13;;
17596;SDS011;8917;50.942;6.946;2022-12-10T07:15:50;26.33;;;18.40;;
17596;SDS011;8917;50.942;6.946;2022-12-10T07:18:17;27.40;;;18.40;;
17596;SDS011;8917;50.942;6.946;2022-12-10T07:20:44;25.27;;;18.57;;
17596;SDS011;8917;50.942;6.946;2022-12-10T07:23:12;27.43;;;18.10;;
17596;SDS011;8917;50.942;6.946;2022-12-10T07:25:41;25.03;;;18.23;;
17596;SDS011;8917;50.942;6.946;2022-12-10T07:28:08;26.60;;;18.73;;
17596;SDS011;8917;50.942;6.946;2022-12-10T07:30:37;27.83;;;18.90;;
17596;SDS011;8917;50.942;6.946;2022-12-10T07:33:04;26.20;;;18.23;;
17596;SDS011;8917;50.942;6.946;2022-12-10T07:35:32;26.67;;;17.00;;
17596;SDS011;8917;50.942;6.946;2022-12-10T07:37:59;24.67;;;18.20;;
17596;SDS011;8917;50.942;6.946;2022-12-10T07:40:26;26.40;;;18.37;;
17596;SDS011;8917;50.942;6.946;2022-12-10T07:42:54;24.93;;;17.70;;
17596;SDS011;8917;50.942;6.946;2022-12-10T07:45:21;26.67;;;18.03;;
17596;SDS011;8917;50.942;6.946;2022-12-10T07:47:50;26.23;;;17.90;;
17596;SDS011;8917;50.942;6.946;2022-12-10T07:50:17;27.10;;;18.33;;
17596;SDS011;8917;50.942;6.946;2022-12-10T07:52:45;23.97;;;17.43;;
17596;SDS011;8917;50.942;6.946;2022-12-10T07:55:12;26.23;;;18.67;;
17596;SDS011;8917;50.942;6.946;2022-12-10T07:57:39;23.50;;;17.13;;
17596;SDS011;8917;50.942;6.946;2022-12-10T08:00:08;26.40;;;18.70;;
17596;SDS011;8917;50.942;6.946;2022-12-10T08:02:38;24.17;;;18.43;;
17596;SDS011;8917;50.942;6.946;2022-12-10T08:05:07;24.97;;;17.43;;
17596;SDS011;8917;50.942;6.946;2022-12-10T08:07:34;26.33;;;19.53;;
17596;SDS011;8917;50.942;6.946;2022-12-10T08:10:02;27.17;;;19.17;;
17596;SDS011;8917;50.942;6.946;2022-12-10T08:12:29;27.37;;;18.40;;
17596;SDS011;8917;50.942;6.946;2022-12-10T08:14:56;24.87;;;18.60;;
17596;SDS011;8917;50.942;6.946;2022-12-10T08:17:24;23.60;;;17.27;;
17596;SDS011;8917;50.942;6.946;2022-12-10T08:19:51;24.63;;;17.30;;
17596;SDS011;8917;50.942;6.946;2022-12-10T08:22:21;22.40;;;17.73;;
17596;SDS011;8917;50.942;6.946;2022-12-10T08:24:48;27.27;;;18.50;;
17596;SDS011;8917;50.942;6.946;2022-12-10T08:27:15;26.30;;;18.53;;
17596;SDS011;8917;50.942;6.946;2022-12-10T08:29:43;27.33;;;18.83;;
17596;SDS011;8917;50.942;6.946;2022-12-10T08:32:10;26.67;;;19.10;;
17596;SDS011;8917;50.942;6.946;2022-12-10T08:34:38;39.53;;;22.57;;
17596;SDS011;8917;50.942;6.946;2022-12-10T08:37:05;43.53;;;24.57;;
17596;SDS011;8917;50.942;6.946;2022-12-10T08:39:34;37.03;;;23.20;;
17596;SDS011;8917;50.942;6.946;2022-12-10T08:42:01;48.50;;;24.47;;
17596;SDS011;8917;50.942;6.946;2022-12-10T08:44:28;35.20;;;22.67;;
17596;SDS011;8917;50.942;6.946;2022-12-10T08:46:56;38.43;;;23.50;;
17596;SDS011;8917;50.942;6.946;2022-12-10T08:49:23;42.50;;;23.30;;
17596;SDS011;8917;50.942;6.946;2022-12-10T08:51:50;42.43;;;24.97;;
17596;SDS011;8917;50.942;6.946;2022-12-10T08:54:18;40.17;;;24.43;;
17596;SDS011;8917;50.942;6.946;2022-12-10T08:56:47;45.47;;;26.20;;
17596;SDS011;8917;50.942;6.946;2022-12-10T08:59:14;44.53;;;25.23;;
17596;SDS011;8917;50.942;6.946;2022-12-10T09:01:42;49.93;;;27.27;;
17596;SDS011;8917;50.942;6.946;2022-12-10T09:04:09;48.57;;;27.17;;
17596;SDS011;8917;50.942;6.946;2022-12-10T09:06:37;46.57;;;25.57;;
17596;SDS011;8917;50.942;6.946;2022-12-10T09:09:05;45.43;;;26.53;;
17596;SDS011;8917;50.942;6.946;2022-12-10T09:11:33;46.63;;;26.47;;
17596;SDS011;8917;50.942;6.946;2022-12-10T09:14:02;50.23;;;27.00;;
17596;SDS011;8917;50.942;6.946;2022-12-10T09:16:30;50.33;;;27.83;;
17596;SDS011;8917;50.942;6.946;2022-12-10T09:18:57;46.40;;;27.40;;
17596;SDS011;8917;50.942;6.946;2022-12-10T09:21:25;48.20;;;27.97;;
17596;SDS011;8917;50.942;6.946;2022-12-10T09:23:52;45.03;;;27.63;;
17596;SDS011;8917;50.942;6.946;2022-12-10T09:26:20;43.30;;;26.60;;
17596;SDS011;8917;50.942;6.946;2022-12-10T09:28:48;44.83;;;26.60;;
17596;SDS011;8917;50.942;6.946;2022-12-10T09:31:17;42.93;;;27.43;;
17596;SDS011;8917;50.942;6.946;2022-12-10T09:33:45;50.80;;;28.70;;
17596;SDS011;8917;50.942;6.946;2022-12-10T09:36:13;57.00;;;31.47;;
17596;SDS011;8917;50.942;6.946;2022-12-10T09:38:41;51.87;;;29.30;;
17596;SDS011;8917;50.942;6.946;2022-12-10T09:41:15;51.90;;;30.80;;
17596;SDS011;8917;50.942;6.946;2022-12-10T09:43:47;48.57;;;28.83;;
17596;SDS011;8917;50.942;6.946;2022-12-10T09:46:19;51.90;;;29.67;;
17596;SDS011;8917;50.942;6.946;2022-12-10T09:48:51;49.80;;;29.17;;
17596;SDS011;8917;50.942;6.946;2022-12-10T09:51:20;49.60;;;30.40;;
17596;SDS011;8917;50.942;6.946;2022-12-10T09:53:49;49.43;;;28.13;;
17596;SDS011;8917;50.942;6.946;2022-12-10T09:56:23;44.60;;;27.57;;
17596;SDS011;8917;50.942;6.946;2022-12-10T09:58:53;44.97;;;27.13;;
17596;SDS011;8917;50.942;6.946;2022-12-10T10:01:22;45.63;;;30.00;;
17596;SDS011;8917;50.942;6.946;2022-12-10T10:03:52;43.43;;;28.33;;
17596;SDS011;8917;50.942;6.946;2022-12-10T10:06:19;44.40;;;27.70;;
17596;SDS011;8917;50.942;6.946;2022-12-10T10:08:48;52.03;;;29.47;;
17596;SDS011;8917;50.942;6.946;2022-12-10T10:11:19;46.70;;;28.90;;
17596;SDS011;8917;50.942;6.946;2022-12-10T10:13:51;51.43;;;29.77;;
17596;SDS011;8917;50.942;6.946;2022-12-10T10:16:23;50.23;;;30.33;;
17596;SDS011;8917;50.942;6.946;2022-12-10T10:18:52;48.10;;;28.93;;
17596;SDS011;8917;50.942;6.946;2022-12-10T10:21:22;49.50;;;28.77;;
17596;SDS011;8917;50.942;6.946;2022-12-10T10:23:50;46.67;;;30.23;;
17596;SDS011;8917;50.942;6.946;2022-12-10T10:26:18;49.77;;;28.17;;
17596;SDS011;8917;50.942;6.946;2022-12-10T10:28:45;47.83;;;30.77;;
17596;SDS011;8917;50.942;6.946;2022-12-10T10:31:16;53.10;;;29.93;;
17596;SDS011;8917;50.942;6.946;2022-12-10T10:33:50;51.80;;;29.37;;
17596;SDS011;8917;50.942;6.946;2022-12-10T10:36:22;48.07;;;29.73;;
17596;SDS011;8917;50.942;6.946;2022-12-10T10:38:50;50.47;;;29.60;;
17596;SDS011;8917;50.942;6.946;2022-12-10T10:41:17;48.67;;;29.57;;
17596;SDS011;8917;50.942;6.946;2022-12-10T10:43:44;48.40;;;30.27;;
17596;SDS011;8917;50.942;6.946;2022-12-10T10:46:14;50.87;;;30.33;;
17596;SDS011;8917;50.942;6.946;2022-12-10T10:48:42;49.90;;;29.83;;
17596;SDS011;8917;50.942;6.946;2022-12-10T10:51:15;57.00;;;29.73;;
17596;SDS011;8917;50.942;6.946;2022-12-10T10:53:46;50.97;;;30.63;;
17596;SDS011;8917;50.942;6.946;2022-12-10T10:56:16;50.93;;;30.83;;
17596;SDS011;8917;50.942;6.946;2022-12-10T10:58:47;46.93;;;30.10;;
17596;SDS011;8917;50.942;6.946;2022-12-10T11:01:15;50.13;;;30.47;;
17596;SDS011;8917;50.942;6.946;2022-12-10T11:03:45;48.53;;;29.53;;
17596;SDS011;8917;50.942;6.946;2022-12-10T11:06:13;48.13;;;29.90;;
17596;SDS011;8917;50.942;6.946;2022-12-10T11:08:42;48.80;;;28.97;;
17596;SDS011;8917;50.942;6.946;2022-12-10T11:11:12;50.57;;;30.40;;
17596;SDS011;8917;50.942;6.946;2022-12-10T11:13:39;53.00;;;31.10;;
17596;SDS011;8917;50.942;6.946;2022-12-10T11:16:12;49.67;;;30.63;;
17596;SDS011;8917;50.942;6.946;2022-12-10T11:18:40;48.30;;;29.70;;
17596;SDS011;8917;50.942;6.946;2022-12-10T11:21:16;48.47;;;29.23;;
17596;SDS011;8917;50.942;6.946;2022-12-10T11:23:46;50.17;;;30.37;;
17596;SDS011;8917;50.942;6.946;2022-12-10T11:26:33;47.43;;;29.83;;
17596;SDS011;8917;50.942;6.946;2022-12-10T11:29:06;49.17;;;29.63;;
17596;SDS011;8917;50.942;6.946;2022-12-10T11:31:39;47.97;;;29.07;;
17596;SDS011;8917;50.942;6.946;2022-12-10T11:34:12;46.70;;;28.27;;
17596;SDS011;8917;50.942;6.946;2022-12-10T11:36:43;49.33;;;30.00;;
17596;SDS011;8917;50.942;6.946;2022-12-10T11:39:17;44.77;;;27.77;;
17596;SDS011;8917;50.942;6.946;2022-12-10T11:41:47;44.87;;;25.90;;
17596;SDS011;8917;50.942;6.946;2022-12-10T11:44:17;43.73;;;28.27;;
17596;SDS011;8917;50.942;6.946;2022-12-10T11:46:57;44.67;;;28.23;;
17596;SDS011;8917;50.942;6.946;2022-12-10T11:49:28;46.13;;;28.23;;
17596;SDS011;8917;50.942;6.946;2022-12-10T11:52:00;40.80;;;26.97;;
17596;SDS011;8917;50.942;6.946;2022-12-10T11:54:34;44.13;;;26.87;;
17596;SDS011;8917;50.942;6.946;2022-12-10T11:57:08;46.17;;;28.40;;
17596;SDS011;8917;50.942;6.946;2022-12-10T11:59:40;38.37;;;23.67;;
17596;SDS011;8917;50.942;6.946;2022-12-10T12:02:27;35.57;;;23.47;;
17596;SDS011;8917;50.942;6.946;2022-12-10T12:05:06;37.97;;;23.47;;
17596;SDS011;8917;50.942;6.946;2022-12-10T12:07:38;37.30;;;22.80;;
17596;SDS011;8917;50.942;6.946;2022-12-10T12:10:26;38.33;;;22.97;;
17596;SDS011;8917;50.942;6.946;2022-12-10T12:12:59;38.70;;;23.07;;
17596;SDS011;8917;50.942;6.946;2022-12-10T12:15:28;33.80;;;21.13;;
17596;SDS011;8917;50.942;6.946;2022-12-10T12:17:57;36.33;;;21.37;;
17596;SDS011;8917;50.942;6.946;2022-12-10T12:20:28;36.17;;;22.27;;
17596;SDS011;8917;50.942;6.946;2022-12-10T12:22:57;35.00;;;21.77;;
17596;SDS011;8917;50.942;6.946;2022-12-10T12:25:27;37.07;;;23.00;;
17596;SDS011;8917;50.942;6.946;2022-12-10T12:27:57;36.07;;;22.70;;
17596;SDS011;8917;50.942;6.946;2022-12-10T12:30:27;36.80;;;23.13;;
17596;SDS011;8917;50.942;6.946;2022-12-10T12:32:55;37.30;;;22.17;;
17596;SDS011;8917;50.942;6.946;2022-12-10T12:35:27;36.37;;;23.50;;
17596;SDS011;8917;50.942;6.946;2022-12-10T12:38:01;35.90;;;23.13;;
17596;SDS011;8917;50.942;6.946;2022-12-10T12:40:33;39.83;;;23.43;;
17596;SDS011;8917;50.942;6.946;2022-12-10T12:43:02;34.53;;;21.70;;
17596;SDS011;8917;50.942;6.946;2022-12-10T12:45:31;40.00;;;25.03;;
17596;SDS011;8917;50.942;6.946;2022-12-10T12:48:01;37.80;;;23.90;;
17596;SDS011;8917;50.942;6.946;2022-12-10T12:50:34;35.90;;;23.67;;
17596;SDS011;8917;50.942;6.946;2022-12-10T12:53:04;32.83;;;20.90;;
17596;SDS011;8917;50.942;6.946;2022-12-10T12:55:38;36.70;;;22.80;;
17596;SDS011;8917;50.942;6.946;2022-12-10T12:58:11;36.03;;;21.47;;
17596;SDS011;8917;50.942;6.946;2022-12-10T13:00:40;38.87;;;22.63;;
17596;SDS011;8917;50.942;6.946;2022-12-10T13:03:17;40.20;;;24.40;;
17596;SDS011;8917;50.942;6.946;2022-12-10T13:05:46;37.57;;;23.27;;
17596;SDS011;8917;50.942;6.946;2022-12-10T13:08:20;39.13;;;23.33;;
17596;SDS011;8917;50.942;6.946;2022-12-10T13:10:51;36.93;;;24.00;;
17596;SDS011;8917;50.942;6.946;2022-12-10T13:13:23;45.83;;;26.87;;
17596;SDS011;8917;50.942;6.946;2022-12-10T13:15:51;38.90;;;22.93;;
17596;SDS011;8917;50.942;6.946;2022-12-10T13:18:20;36.70;;;23.27;;
17596;SDS011;8917;50.942;6.946;2022-12-10T13:20:48;39.90;;;23.53;;
17596;SDS011;8917;50.942;6.946;2022-12-10T13:23:29;36.70;;;23.03;;
17596;SDS011;8917;50.942;6.946;2022-12-10T13:25:58;37.90;;;24.00;;
17596;SDS011;8917;50.942;6.946;2022-12-10T13:28:28;37.27;;;23.57;;
17596;SDS011;8917;50.942;6.946;2022-12-10T13:31:07;38.97;;;23.67;;
17596;SDS011;8917;50.942;6.946;2022-12-10T13:33:50;38.23;;;24.73;;
17596;SDS011;8917;50.942;6.946;2022-12-10T13:36:21;36.90;;;22.03;;
17596;SDS011;8917;50.942;6.946;2022-12-10T13:38:56;37.17;;;22.30;;
17596;SDS011;8917;50.942;6.946;2022-12-10T13:41:25;34.63;;;23.63;;
17596;SDS011;8917;50.942;6.946;2022-12-10T13:44:33;39.80;;;22.97;;
17596;SDS011;8917;50.942;6.946;2022-12-10T13:47:04;38.70;;;22.43;;
17596;SDS011;8917;50.942;6.946;2022-12-10T13:49:34;38.33;;;22.17;;
17596;SDS011;8917;50.942;6.946;2022-12-10T13:52:11;33.87;;;21.83;;
17596;SDS011;8917;50.942;6.946;2022-12-10T13:54:49;36.83;;;22.77;;
17596;SDS011;8917;50.942;6.946;2022-12-10T13:57:27;36.97;;;23.50;;
17596;SDS011;8917;50.942;6.946;2022-12-10T13:59:59;39.50;;;24.47;;
17596;SDS011;8917;50.942;6.946;2022-12-10T14:02:36;43.50;;;25.57;;
17596;SDS011;8917;50.942;6.946;2022-12-10T14:05:14;34.80;;;22.97;;
17596;SDS011;8917;50.942;6.946;2022-12-10T14:07:45;39.40;;;24.00;;
17596;SDS011;8917;50.942;6.946;2022-12-10T14:10:15;37.17;;;23.47;;
17596;SDS011;8917;50.942;6.946;2022-12-10T14:12:44;37.37;;;24.23;;
17596;SDS011;8917;50.942;6.946;2022-12-10T14:15:14;40.23;;;23.43;;
17596;SDS011;8917;50.942;6.946;2022-12-10T14:17:43;41.47;;;25.17;;
17596;SDS011;8917;50.942;6.946;2022-12-10T14:20:13;36.97;;;23.37;;
17596;SDS011;8917;50.942;6.946;2022-12-10T14:22:43;37.27;;;23.50;;
17596;SDS011;8917;50.942;6.946;2022-12-10T14:25:12;36.40;;;23.17;;
17596;SDS011;8917;50.942;6.946;2022-12-10T14:27:40;41.00;;;24.13;;
17596;SDS011;8917;50.942;6.946;2022-12-10T14:30:16;38.30;;;23.03;;
17596;SDS011;8917;50.942;6.946;2022-12-10T14:32:44;37.77;;;23.20;;
17596;SDS011;8917;50.942;6.946;2022-12-10T14:35:13;37.33;;;23.37;;
17596;SDS011;8917;50.942;6.946;2022-12-10T14:37:41;38.03;;;22.70;;
17596;SDS011;8917;50.942;6.946;2022-12-10T14:40:09;36.80;;;22.30;;
17596;SDS011;8917;50.942;6.946;2022-12-10T14:42:44;38.63;;;22.67;;
17596;SDS011;8917;50.942;6.946;2022-12-10T14:45:13;34.23;;;21.00;;
17596;SDS011;8917;50.942;6.946;2022-12-10T14:47:45;33.60;;;21.77;;